MUCU/SCU METAR and TAF weather

Enter ICAO airport designator
Station Type Date Time Source
MUCU METAR 2019/04/18 13:50 UTC NOAA

MUCU 181350Z 20003KT 120V240 9000 FEW020 28/17 Q1016


Station Type Date Time Source
MUCU Decoded METAR 2019/04/18 13:50 UTC NOAA

Santiago De Cuba, Oriente, Cuba (MUCU) 19-58N 075-51W 55M
Apr 18, 2019 - 09:50 AM EDT / 2019.04.18 1350 UTC
Wind: from the SSW (200 degrees) at 3 MPH (3 KT) (direction variable):0
Visibility: 5 mile(s):0
Sky conditions: mostly clear
Temperature: 82 F (28 C)
Dew Point: 62 F (17 C)
Relative Humidity: 51%
Pressure (altimeter): 30.00 in. Hg (1016 hPa)
ob: MUCU 181350Z 20003KT 120V240 9000 FEW020 28/17 Q1016
cycle: 14

Station Type Date Time Source
MUCU TAF 2019/04/18 12:03 UTC NOAA

TAF MUCU 181100Z 1812/1912 01005KT 9000 FEW020
BECMG 1815/1818 19008KT
TEMPO 1819/1823 6000 SHRA BKN020
BECMG 1903/1905 VRB03KT

Example: see airport list